Time;durP1;ratioP1;P1;durP2;ratioP2;P2;SDS_P1;SDS_P2;PMS_P1;PMS_P2;Temp;Humidity;BMP_temperature;BMP_pressure;BME280_temperature;BME280_humidity;BME280_pressure;Samples;Min_cycle;Max_cycle;Signal;HPM_P1;HPM_P2
2022/02/07 00:00:44;;;;;;;0.80;0.80;;;4.50;97.30;;;;;;4989980;28;20421;-86
2022/02/07 00:03:31;;;;;;;0.83;0.83;;;4.50;97.30;;;;;;4996937;28;20542;-85
2022/02/07 00:05:56;;;;;;;3.43;1.23;;;4.50;97.30;;;;;;5008726;28;20986;-84
2022/02/07 00:08:22;;;;;;;1.10;0.97;;;4.50;97.30;;;;;;4996095;28;20436;-85
2022/02/07 00:10:47;;;;;;;1.10;1.00;;;4.50;97.30;;;;;;4994898;28;20192;-85
2022/02/07 00:13:13;;;;;;;1.00;0.90;;;4.50;97.30;;;;;;4998589;28;20185;-86
2022/02/07 00:15:39;;;;;;;1.73;1.10;;;4.50;97.30;;;;;;4993165;28;20178;-86
2022/02/07 00:18:06;;;;;;;1.10;1.00;;;4.50;97.30;;;;;;4992666;28;20241;-86
2022/02/07 00:20:32;;;;;;;1.00;0.90;;;4.40;97.30;;;;;;4992179;28;20256;-85
2022/02/07 00:22:58;;;;;;;1.37;0.87;;;4.40;97.30;;;;;;4992440;28;20425;-86
2022/02/07 00:25:23;;;;;;;1.00;0.90;;;4.30;97.30;;;;;;4993142;28;20938;-86
2022/02/07 00:27:49;;;;;;;0.90;0.80;;;4.30;97.30;;;;;;4993528;28;20188;-85
2022/02/07 00:30:17;;;;;;;1.03;0.93;;;4.20;97.30;;;;;;4993624;28;20677;-86
2022/02/07 00:32:43;;;;;;;1.00;0.90;;;4.20;97.30;;;;;;4994275;28;20202;-86
2022/02/07 00:35:13;;;;;;;1.57;0.90;;;4.20;97.30;;;;;;4994941;28;20930;-86
2022/02/07 00:37:40;;;;;;;1.80;1.10;;;4.20;97.30;;;;;;4993225;28;20672;-85
2022/02/07 00:42:53;;;;;;;1.50;1.20;;;4.10;97.30;;;;;;4997910;28;20452;-87
2022/02/07 00:48:00;;;;;;;1.90;0.97;;;4.00;97.30;;;;;;4995524;28;20393;-84
2022/02/07 00:50:27;;;;;;;5.57;1.77;;;4.00;97.30;;;;;;4993989;28;20408;-85
2022/02/07 00:52:53;;;;;;;2.53;1.30;;;3.90;97.30;;;;;;4993288;28;20413;-85
2022/02/07 00:55:18;;;;;;;2.87;2.67;;;3.90;97.30;;;;;;4993923;28;20417;-85
2022/02/07 00:57:44;;;;;;;2.40;1.10;;;3.90;97.30;;;;;;4993965;28;20272;-85
2022/02/07 01:00:10;;;;;;;0.93;0.83;;;3.90;97.30;;;;;;4995209;28;20193;-85
2022/02/07 01:02:36;;;;;;;2.83;1.00;;;3.80;97.30;;;;;;4993164;28;20229;-85
2022/02/07 01:05:02;;;;;;;2.93;1.47;;;3.80;97.30;;;;;;4992337;28;20460;-85
2022/02/07 01:07:29;;;;;;;3.13;1.03;;;3.80;97.30;;;;;;4994846;28;20416;-85
2022/02/07 01:09:55;;;;;;;2.60;1.33;;;3.80;97.30;;;;;;4993167;28;20437;-85
2022/02/07 01:15:10;;;;;;;4.00;1.47;;;3.90;97.30;;;;;;4994306;28;20412;-86
2022/02/07 01:18:33;;;;;;;2.73;1.37;;;3.90;97.30;;;;;;4993318;28;20810;-85
2022/02/07 01:23:39;;;;;;;1.13;1.13;;;4.00;97.30;;;;;;4992928;28;20487;-85
2022/02/07 01:48:51;;;;;;;1.20;1.10;;;3.50;97.30;;;;;;4996420;28;20845;-86
2022/02/07 01:54:09;;;;;;;1.20;0.93;;;3.50;97.30;;;;;;4996709;28;20793;-86
2022/02/07 01:56:34;;;;;;;6.17;1.30;;;3.40;97.30;;;;;;4997661;28;20417;-86
2022/02/07 01:59:00;;;;;;;1.77;1.10;;;3.30;97.30;;;;;;4997748;28;20939;-85
2022/02/07 02:01:25;;;;;;;1.50;1.10;;;3.30;97.30;;;;;;4995832;28;20479;-86
2022/02/07 02:03:51;;;;;;;3.00;0.80;;;3.20;97.30;;;;;;4995038;28;20224;-86
2022/02/07 02:06:16;;;;;;;6.33;1.47;;;3.20;97.30;;;;;;4999535;28;20182;-85
2022/02/07 02:08:42;;;;;;;2.47;0.93;;;3.10;97.30;;;;;;4999277;28;20273;-86
2022/02/07 02:11:08;;;;;;;1.20;1.10;;;3.10;97.30;;;;;;4996086;28;20173;-86
2022/02/07 02:14:23;;;;;;;4.87;1.57;;;3.00;97.30;;;;;;4994880;28;20193;-86
2022/02/07 02:16:33;;;;;;;5.10;1.40;;;3.00;97.30;;;;;;4990665;28;20186;-85
2022/02/07 02:19:30;;;;;;;8.00;1.43;;;2.90;97.30;;;;;;4996090;28;20451;-87
2022/02/07 02:35:56;;;;;;;1.37;1.07;;;2.70;97.30;;;;;;4995737;28;20403;-86
2022/02/07 02:38:39;;;;;;;1.80;1.70;;;2.70;97.30;;;;;;4994222;28;20437;-86
2022/02/07 02:46:32;;;;;;;3.50;1.20;;;2.70;97.30;;;;;;4996196;28;20802;-86
2022/02/07 02:49:01;;;;;;;0.90;0.90;;;2.70;97.30;;;;;;4994475;28;20441;-86
2022/02/07 02:51:28;;;;;;;1.60;1.20;;;2.60;97.30;;;;;;4996034;28;20177;-86
2022/02/07 02:53:54;;;;;;;1.97;1.10;;;2.60;97.30;;;;;;4994380;28;20424;-86
2022/02/07 02:56:20;;;;;;;3.40;1.50;;;2.60;97.30;;;;;;4993924;28;20413;-86
2022/02/07 02:58:45;;;;;;;1.93;1.23;;;2.60;97.30;;;;;;4994259;28;20198;-86
2022/02/07 03:01:11;;;;;;;3.23;1.47;;;2.70;97.30;;;;;;4994200;28;20422;-86
2022/02/07 03:03:36;;;;;;;3.17;1.00;;;2.70;97.30;;;;;;4994141;28;20206;-87
2022/02/07 03:06:02;;;;;;;0.90;0.90;;;2.80;97.30;;;;;;4994110;28;20650;-86
2022/02/07 03:08:28;;;;;;;2.90;1.77;;;2.80;97.30;;;;;;4994301;28;20193;-86
2022/02/07 03:11:04;;;;;;;4.93;1.30;;;2.80;97.30;;;;;;4994792;28;20421;-86
2022/02/07 03:18:39;;;;;;;2.30;1.30;;;2.80;97.30;;;;;;4995422;28;20276;-86
2022/02/07 03:21:05;;;;;;;1.20;1.00;;;2.80;97.30;;;;;;4993697;28;21234;-86
2022/02/07 03:23:31;;;;;;;5.13;1.63;;;2.80;97.30;;;;;;4994754;28;20644;-87
2022/02/07 03:25:56;;;;;;;3.03;0.90;;;2.80;97.30;;;;;;4993653;28;20204;-87
2022/02/07 03:28:24;;;;;;;0.97;0.90;;;2.80;97.30;;;;;;4995227;28;20547;-86
2022/02/07 03:30:50;;;;;;;1.80;1.10;;;2.80;97.30;;;;;;4996097;28;20174;-86
2022/02/07 03:33:16;;;;;;;2.13;1.40;;;2.70;97.30;;;;;;4994498;28;20551;-86
2022/02/07 03:35:42;;;;;;;1.00;0.93;;;2.70;97.30;;;;;;4993199;28;20557;-86
2022/02/07 03:38:08;;;;;;;4.87;1.20;;;2.70;97.30;;;;;;4994042;28;20421;-86
2022/02/07 03:40:35;;;;;;;2.60;1.60;;;2.70;97.30;;;;;;4993217;28;20960;-87
2022/02/07 03:43:01;;;;;;;1.23;1.10;;;2.70;97.30;;;;;;4993624;28;20432;-86
2022/02/07 03:45:26;;;;;;;2.30;1.27;;;2.70;97.30;;;;;;4994245;28;20417;-86
2022/02/07 03:47:52;;;;;;;4.80;2.00;;;2.70;97.30;;;;;;4994525;28;20210;-86
2022/02/07 03:50:18;;;;;;;4.70;1.27;;;2.70;97.30;;;;;;4993289;28;20205;-86
2022/02/07 03:52:43;;;;;;;2.97;1.33;;;2.80;97.30;;;;;;4993258;28;20205;-86
2022/02/07 03:55:09;;;;;;;2.00;1.10;;;2.80;97.30;;;;;;4992727;28;20182;-87
2022/02/07 03:57:35;;;;;;;3.80;1.33;;;2.80;97.30;;;;;;4993220;28;20182;-86
2022/02/07 04:00:04;;;;;;;5.70;2.17;;;2.80;97.30;;;;;;4993020;28;20437;-86
2022/02/07 04:02:31;;;;;;;5.10;1.50;;;2.80;97.30;;;;;;4997678;28;20186;-86
2022/02/07 04:05:11;;;;;;;8.30;1.47;;;2.80;97.30;;;;;;4992697;28;20460;-86
2022/02/07 04:07:37;;;;;;;3.70;1.20;;;2.80;97.30;;;;;;4993321;28;20417;-86
2022/02/07 04:10:03;;;;;;;4.47;2.03;;;2.80;97.30;;;;;;4992658;28;20490;-87
2022/02/07 04:12:29;;;;;;;5.33;1.13;;;2.80;97.30;;;;;;4992745;28;20661;-86
2022/02/07 04:14:54;;;;;;;1.90;1.30;;;2.80;97.30;;;;;;4994382;28;20204;-86
2022/02/07 04:17:25;;;;;;;2.63;1.00;;;2.80;97.30;;;;;;4992897;28;20477;-86
2022/02/07 04:19:57;;;;;;;3.00;1.50;;;2.90;97.30;;;;;;4993088;28;20662;-86
2022/02/07 04:22:22;;;;;;;3.77;1.40;;;2.90;97.30;;;;;;4992922;28;20935;-85
2022/02/07 04:24:48;;;;;;;5.20;1.30;;;3.00;97.30;;;;;;4992405;28;20464;-87
2022/02/07 04:27:13;;;;;;;3.10;1.20;;;3.00;97.30;;;;;;4991982;28;20571;-85
2022/02/07 04:29:39;;;;;;;2.00;1.40;;;3.10;97.30;;;;;;4993454;28;20200;-84
2022/02/07 04:32:05;;;;;;;4.20;1.20;;;3.10;97.30;;;;;;4992220;28;20174;-85
2022/02/07 04:34:30;;;;;;;3.03;1.17;;;3.10;97.30;;;;;;4993381;28;20641;-86
2022/02/07 04:36:57;;;;;;;4.57;1.73;;;3.00;97.30;;;;;;4993467;28;20185;-85
2022/02/07 04:39:22;;;;;;;6.20;1.50;;;3.00;97.30;;;;;;4992255;28;20295;-85
2022/02/07 04:41:48;;;;;;;2.20;1.20;;;3.00;97.30;;;;;;4992734;28;20421;-86
2022/02/07 04:44:21;;;;;;;4.13;1.50;;;3.00;97.30;;;;;;4992901;28;20209;-86
2022/02/07 04:47:01;;;;;;;6.23;1.43;;;2.90;97.30;;;;;;4994346;28;20798;-86
2022/02/07 04:49:57;;;;;;;3.33;1.17;;;2.90;97.30;;;;;;4992657;28;20468;-86
2022/02/07 04:52:54;;;;;;;9.93;1.67;;;2.90;97.30;;;;;;4992682;28;20476;-86
2022/02/07 04:55:38;;;;;;;1.03;1.00;;;2.90;97.30;;;;;;4993732;28;20830;-85
2022/02/07 04:58:15;;;;;;;3.60;1.30;;;2.90;97.30;;;;;;4992372;28;20449;-85
2022/02/07 05:01:05;;;;;;;2.63;1.30;;;2.90;97.30;;;;;;4994674;28;20899;-86
2022/02/07 05:03:35;;;;;;;8.90;1.40;;;2.90;97.30;;;;;;4991863;28;20464;-86
2022/02/07 05:14:13;;;;;;;3.23;1.53;;;3.00;97.30;;;;;;4995186;28;20407;-86
2022/02/07 05:16:40;;;;;;;3.10;1.20;;;3.00;97.30;;;;;;4997526;28;20472;-85
2022/02/07 05:19:06;;;;;;;6.77;1.57;;;3.00;97.30;;;;;;4998852;28;20225;-85
2022/02/07 05:21:31;;;;;;;3.03;1.30;;;3.10;97.30;;;;;;4996714;28;20436;-85
2022/02/07 05:23:57;;;;;;;3.50;2.70;;;3.10;97.30;;;;;;4994386;28;21038;-85
2022/02/07 05:26:24;;;;;;;3.03;1.67;;;3.10;97.30;;;;;;4996705;28;20170;-85
2022/02/07 05:28:50;;;;;;;3.27;1.30;;;3.10;97.30;;;;;;4992057;28;20621;-86
2022/02/07 05:31:18;;;;;;;2.00;1.87;;;3.20;97.30;;;;;;4991561;28;20409;-85
2022/02/07 05:33:45;;;;;;;3.53;1.53;;;3.20;97.30;;;;;;4991470;28;20178;-86
2022/02/07 05:36:10;;;;;;;1.57;1.10;;;3.20;97.30;;;;;;4991441;28;20413;-85
2022/02/07 05:38:39;;;;;;;1.63;1.50;;;3.30;97.30;;;;;;4993404;28;21575;-86
2022/02/07 05:41:06;;;;;;;4.33;1.40;;;3.30;97.30;;;;;;4991863;28;20182;-85
2022/02/07 05:43:31;;;;;;;4.20;1.33;;;3.30;97.30;;;;;;4993902;28;20484;-86
2022/02/07 05:45:57;;;;;;;10.90;2.10;;;3.30;97.30;;;;;;4992857;28;20507;-86
2022/02/07 05:48:22;;;;;;;13.13;1.77;;;3.30;97.30;;;;;;4991740;28;20205;-85
2022/02/07 05:50:48;;;;;;;4.33;1.10;;;3.30;97.30;;;;;;4993040;28;20178;-86
2022/02/07 05:53:14;;;;;;;5.40;1.30;;;3.30;97.30;;;;;;4991590;28;20205;-85
2022/02/07 05:55:39;;;;;;;6.53;1.17;;;3.40;97.30;;;;;;4991479;28;20256;-85
2022/02/07 05:58:05;;;;;;;1.53;1.00;;;3.40;97.30;;;;;;4997205;28;20628;-85
2022/02/07 06:00:34;;;;;;;4.13;1.10;;;3.40;97.30;;;;;;4991740;28;20177;-86
2022/02/07 06:03:00;;;;;;;5.77;1.30;;;3.40;97.30;;;;;;4991786;28;20206;-86
2022/02/07 06:05:26;;;;;;;2.90;1.40;;;3.40;97.30;;;;;;4991786;28;20836;-86
2022/02/07 06:07:52;;;;;;;10.10;1.80;;;3.40;97.30;;;;;;4991561;28;20485;-85
2022/02/07 06:10:18;;;;;;;5.53;1.60;;;3.40;97.30;;;;;;4992709;28;20511;-86
2022/02/07 06:12:45;;;;;;;2.87;1.50;;;3.40;97.30;;;;;;4991534;28;20184;-86
2022/02/07 06:15:11;;;;;;;2.03;1.20;;;3.30;97.30;;;;;;4992755;28;20170;-86
2022/02/07 06:17:37;;;;;;;1.17;1.00;;;3.30;97.30;;;;;;4993074;28;20413;-86
2022/02/07 06:20:04;;;;;;;5.90;1.30;;;3.20;97.30;;;;;;4994622;28;20198;-86
2022/02/07 06:22:29;;;;;;;4.93;1.27;;;3.10;97.30;;;;;;4994786;28;20479;-86
2022/02/07 06:24:57;;;;;;;2.33;1.50;;;3.10;97.30;;;;;;4995151;28;20461;-86
2022/02/07 06:27:23;;;;;;;2.50;1.30;;;3.00;97.30;;;;;;4995092;28;20239;-86
2022/02/07 06:29:49;;;;;;;7.93;1.23;;;3.00;97.30;;;;;;4995088;28;20448;-86
2022/02/07 06:32:14;;;;;;;2.80;1.30;;;3.00;97.30;;;;;;4994649;28;20401;-85
2022/02/07 06:34:40;;;;;;;8.30;2.30;;;3.00;97.30;;;;;;4994903;28;20282;-86
2022/02/07 06:37:06;;;;;;;1.53;1.10;;;2.90;97.30;;;;;;4994857;28;20534;-86
2022/02/07 06:39:32;;;;;;;7.50;1.50;;;2.90;97.30;;;;;;4994521;28;20229;-85
2022/02/07 06:41:57;;;;;;;4.57;1.90;;;2.90;97.30;;;;;;4994398;28;20428;-86
2022/02/07 06:44:23;;;;;;;2.10;1.30;;;2.90;97.30;;;;;;4994410;28;20672;-86
2022/02/07 06:46:49;;;;;;;4.53;1.30;;;2.80;97.30;;;;;;4994513;28;20256;-85
2022/02/07 06:49:15;;;;;;;4.30;1.20;;;2.80;97.30;;;;;;4995759;28;20663;-86
2022/02/07 06:51:40;;;;;;;9.47;1.40;;;2.80;97.30;;;;;;4995208;28;20181;-85
2022/02/07 06:54:06;;;;;;;3.67;1.70;;;2.90;97.30;;;;;;4996055;28;20205;-86
2022/02/07 06:56:31;;;;;;;4.50;1.20;;;2.90;97.30;;;;;;5004617;28;20482;-87
2022/02/07 06:58:57;;;;;;;3.83;1.60;;;2.90;97.30;;;;;;5002093;28;20289;-86
2022/02/07 07:01:23;;;;;;;4.20;2.20;;;2.80;97.30;;;;;;4994237;28;20190;-85
2022/02/07 07:03:49;;;;;;;3.40;1.80;;;2.80;97.30;;;;;;4994824;28;20575;-86
2022/02/07 07:06:15;;;;;;;5.17;1.20;;;2.80;97.30;;;;;;4994162;28;20173;-85
2022/02/07 07:08:47;;;;;;;1.27;1.27;;;2.70;97.30;;;;;;4993920;28;20272;-85
2022/02/07 07:11:16;;;;;;;3.20;1.27;;;2.60;97.30;;;;;;4994552;28;20924;-86
2022/02/07 07:13:47;;;;;;;7.80;1.57;;;2.50;97.30;;;;;;4993740;28;20417;-85
2022/02/07 07:18:48;;;;;;;2.10;1.17;;;2.30;97.30;;;;;;4994979;28;20838;-85
2022/02/07 07:21:14;;;;;;;1.30;1.17;;;2.20;97.30;;;;;;4994346;28;20425;-85
2022/02/07 07:23:40;;;;;;;2.23;1.30;;;2.20;97.30;;;;;;4996050;28;20309;-85
2022/02/07 07:26:06;;;;;;;1.47;1.17;;;2.10;97.30;;;;;;4994141;28;20979;-86
2022/02/07 07:28:33;;;;;;;1.60;1.27;;;2.00;97.30;;;;;;4994811;28;20429;-85
2022/02/07 07:31:00;;;;;;;1.53;1.47;;;1.90;97.30;;;;;;4994116;28;20484;-85
2022/02/07 07:33:27;;;;;;;5.80;1.53;;;1.90;97.30;;;;;;4994732;28;20413;-85
2022/02/07 07:35:53;;;;;;;5.63;1.70;;;1.90;97.30;;;;;;4993612;28;20512;-85
2022/02/07 07:38:19;;;;;;;3.47;1.47;;;1.90;97.30;;;;;;4993425;28;20855;-85
2022/02/07 07:40:44;;;;;;;4.30;1.90;;;1.80;97.30;;;;;;4993377;28;20835;-85
2022/02/07 07:43:11;;;;;;;3.20;1.60;;;1.90;97.30;;;;;;4993317;28;20421;-85
2022/02/07 07:45:44;;;;;;;3.20;2.13;;;2.00;97.30;;;;;;4994724;28;20174;-85
2022/02/07 07:48:13;;;;;;;4.13;2.50;;;2.00;97.30;;;;;;4992999;28;20810;-86
2022/02/07 08:03:41;;;;;;;3.63;1.80;;;2.50;97.30;;;;;;4994445;28;20528;-83
2022/02/07 08:06:23;;;;;;;1.50;1.40;;;2.60;97.30;;;;;;4992887;28;21016;-86
2022/02/07 08:09:13;;;;;;;4.83;1.90;;;2.60;97.30;;;;;;4993741;28;20435;-85
2022/02/07 08:11:36;;;;;;;4.17;1.47;;;2.80;97.30;;;;;;4993680;28;20424;-86
2022/02/07 08:14:04;;;;;;;3.83;1.50;;;2.90;97.30;;;;;;4992783;28;20453;-86
2022/02/07 08:16:30;;;;;;;1.47;1.33;;;2.90;97.30;;;;;;4992365;28;20417;-86
2022/02/07 08:19:01;;;;;;;4.23;1.60;;;3.00;97.30;;;;;;4992564;28;20463;-86
2022/02/07 08:21:26;;;;;;;2.40;1.30;;;3.10;97.30;;;;;;4993384;28;20170;-86
2022/02/07 08:23:52;;;;;;;1.57;1.40;;;3.20;97.30;;;;;;4993071;28;20453;-86
2022/02/07 08:26:18;;;;;;;3.00;2.40;;;3.30;97.30;;;;;;4981807;28;20215;-86
2022/02/07 08:28:45;;;;;;;4.37;1.30;;;3.30;97.30;;;;;;5013247;28;20531;-86
2022/02/07 08:31:11;;;;;;;2.80;1.60;;;3.40;97.30;;;;;;5010863;28;20187;-87
2022/02/07 08:33:39;;;;;;;4.17;1.50;;;3.40;97.30;;;;;;5004029;28;20428;-86
2022/02/07 08:36:05;;;;;;;6.10;1.40;;;3.50;97.30;;;;;;5009991;28;20490;-87
2022/02/07 08:38:32;;;;;;;1.70;1.20;;;3.50;97.30;;;;;;5011849;28;20450;-87
2022/02/07 08:40:57;;;;;;;1.53;1.30;;;3.60;97.30;;;;;;5011187;28;20444;-84
2022/02/07 08:43:23;;;;;;;4.87;1.40;;;3.70;97.30;;;;;;5009911;28;20490;-87
2022/02/07 08:45:49;;;;;;;7.20;1.83;;;3.80;97.30;;;;;;5013063;28;20683;-86
2022/02/07 08:48:14;;;;;;;7.27;1.43;;;3.90;97.30;;;;;;5013657;28;20197;-86
2022/02/07 08:50:40;;;;;;;5.70;1.43;;;3.90;97.30;;;;;;5009021;28;20687;-86
2022/02/07 08:53:06;;;;;;;4.70;1.73;;;4.00;97.30;;;;;;5012121;28;20338;-86
2022/02/07 08:55:37;;;;;;;8.03;2.03;;;4.10;97.30;;;;;;5011178;28;20184;-86
2022/02/07 08:58:08;;;;;;;5.40;1.80;;;4.30;97.30;;;;;;5013520;28;20483;-86
2022/02/07 09:00:49;;;;;;;1.97;1.40;;;4.30;97.30;;;;;;5012328;28;20416;-86
2022/02/07 09:03:41;;;;;;;4.27;1.90;;;4.30;97.30;;;;;;5011821;28;20455;-85
2022/02/07 09:11:19;;;;;;;4.47;2.17;;;4.40;97.30;;;;;;5013129;28;20428;-83
2022/02/07 09:13:46;;;;;;;9.57;2.23;;;4.40;97.30;;;;;;5012108;28;20174;-86
2022/02/07 09:18:41;;;;;;;10.27;2.50;;;4.50;97.30;;;;;;5012612;28;20440;-87
2022/02/07 09:21:08;;;;;;;12.20;2.50;;;4.60;97.30;;;;;;5011233;28;20486;-87
2022/02/07 09:23:36;;;;;;;2.33;1.70;;;4.70;97.30;;;;;;5011423;28;20526;-86
2022/02/07 09:26:03;;;;;;;9.40;2.20;;;4.70;97.30;;;;;;5011878;28;20424;-86
2022/02/07 09:28:28;;;;;;;4.03;1.43;;;4.80;97.30;;;;;;5012834;28;20439;-86
2022/02/07 09:30:54;;;;;;;9.10;2.27;;;4.80;97.30;;;;;;5011188;28;20412;-87
2022/02/07 09:33:21;;;;;;;5.47;1.90;;;4.90;97.30;;;;;;5010925;28;20211;-86
2022/02/07 09:35:49;;;;;;;7.53;1.87;;;4.90;97.30;;;;;;5011800;28;20277;-85
2022/02/07 09:38:15;;;;;;;10.13;2.10;;;4.90;97.30;;;;;;5012442;28;20412;-86
2022/02/07 09:40:42;;;;;;;7.83;2.07;;;5.00;97.30;;;;;;5010590;28;20460;-85
2022/02/07 09:43:08;;;;;;;9.57;2.20;;;5.00;97.30;;;;;;5011487;28;20482;-85
2022/02/07 09:45:37;;;;;;;12.90;2.27;;;5.00;97.30;;;;;;5011120;28;21002;-84
2022/02/07 09:48:05;;;;;;;3.13;2.10;;;5.00;97.30;;;;;;5012589;28;20419;-85
2022/02/07 09:50:32;;;;;;;14.73;1.80;;;5.10;97.30;;;;;;5011253;28;20458;-85
2022/02/07 09:52:58;;;;;;;8.87;1.60;;;5.20;97.30;;;;;;5014163;28;20945;-85
2022/02/07 09:55:24;;;;;;;3.20;2.00;;;5.20;97.30;;;;;;5014910;28;20416;-85
2022/02/07 09:57:53;;;;;;;9.23;3.53;;;5.30;97.30;;;;;;5021301;28;20180;-85
2022/02/07 10:00:30;;;;;;;6.00;2.13;;;5.40;97.30;;;;;;5014493;28;20444;-85
2022/02/07 10:03:12;;;;;;;7.47;2.17;;;5.50;97.30;;;;;;5014736;28;20416;-86
2022/02/07 10:05:51;;;;;;;6.60;1.50;;;5.60;97.30;;;;;;5015172;28;20514;-85
2022/02/07 10:08:34;;;;;;;11.40;1.77;;;5.70;97.30;;;;;;5015387;28;20922;-85
2022/02/07 10:16:38;;;;;;;17.63;2.60;;;5.80;97.30;;;;;;5016379;28;20408;-85
2022/02/07 10:42:00;;;;;;;12.23;2.43;;;6.00;97.30;;;;;;5015927;28;20477;-85
2022/02/07 10:47:18;;;;;;;7.73;2.00;;;6.20;97.30;;;;;;5016316;28;20416;-86
2022/02/07 10:50:00;;;;;;;6.60;1.60;;;6.10;97.30;;;;;;5018002;28;20466;-84
2022/02/07 10:52:58;;;;;;;11.53;2.10;;;6.20;97.30;;;;;;5016057;28;20434;-84
2022/02/07 10:55:30;;;;;;;8.73;2.03;;;6.20;97.30;;;;;;5014527;28;20428;-85
2022/02/07 10:57:58;;;;;;;11.07;1.73;;;6.30;97.30;;;;;;5014324;28;20428;-86
2022/02/07 11:00:30;;;;;;;4.03;1.90;;;6.30;97.30;;;;;;5015342;28;20447;-84
2022/02/07 11:03:20;;;;;;;11.93;2.10;;;6.30;97.30;;;;;;5014000;28;20966;-84
2022/02/07 11:05:53;;;;;;;8.40;2.40;;;6.20;97.30;;;;;;5014396;28;20424;-85
2022/02/07 11:08:41;;;;;;;12.73;2.60;;;6.20;97.30;;;;;;5014258;28;20439;-86
2022/02/07 11:19:36;;;;;;;15.03;2.87;;;6.70;97.30;;;;;;5015686;28;20444;-86
2022/02/07 11:25:24;;;;;;;7.13;1.70;;;6.60;97.30;;;;;;5015276;28;20447;-84
2022/02/07 11:27:52;;;;;;;12.70;2.50;;;6.50;97.30;;;;;;5014276;28;21016;-86
2022/02/07 11:30:43;;;;;;;16.83;2.73;;;6.40;97.30;;;;;;5012014;28;20448;-85
2022/02/07 11:33:27;;;;;;;8.73;2.17;;;6.30;97.30;;;;;;5003956;28;20867;-85
2022/02/07 11:35:53;;;;;;;3.30;2.00;;;6.40;97.30;;;;;;5014171;28;20403;-85
2022/02/07 11:38:19;;;;;;;11.83;3.23;;;6.50;97.30;;;;;;5013017;28;20588;-85
2022/02/07 11:41:04;;;;;;;8.47;2.07;;;6.60;96.80;;;;;;5013693;28;20714;-85
2022/02/07 11:43:32;;;;;;;7.13;2.50;;;6.50;97.10;;;;;;5014356;28;20988;-86
2022/02/07 11:46:08;;;;;;;8.13;2.20;;;6.40;97.30;;;;;;5015077;28;20413;-86
2022/02/07 11:48:47;;;;;;;6.47;2.10;;;6.40;97.30;;;;;;5013435;28;20459;-86
2022/02/07 11:51:21;;;;;;;11.83;2.50;;;6.30;97.30;;;;;;5012971;28;20409;-86
2022/02/07 11:53:50;;;;;;;7.00;2.03;;;6.40;97.30;;;;;;5013041;28;20503;-85
2022/02/07 11:56:44;;;;;;;12.80;2.13;;;6.60;97.10;;;;;;5019181;28;20424;-85
2022/02/07 12:01:59;;;;;;;15.63;2.20;;;6.90;95.60;;;;;;5014295;28;20444;-85
2022/02/07 12:04:26;;;;;;;11.40;1.97;;;7.00;95.30;;;;;;5012665;28;20463;-84
2022/02/07 12:07:10;;;;;;;5.73;2.17;;;7.00;94.40;;;;;;5012701;28;20743;-86
2022/02/07 12:09:37;;;;;;;18.90;2.50;;;7.10;94.50;;;;;;5012108;28;20420;-86
2022/02/07 12:12:03;;;;;;;5.83;1.97;;;7.10;94.80;;;;;;5012932;28;20415;-85
2022/02/07 12:14:37;;;;;;;11.90;2.83;;;7.10;94.70;;;;;;5012624;28;20435;-86
2022/02/07 12:17:04;;;;;;;5.87;2.80;;;7.00;95.20;;;;;;5011395;28;20416;-87
2022/02/07 12:19:40;;;;;;;13.53;2.67;;;6.90;95.10;;;;;;5011826;28;20470;-86
2022/02/07 12:22:19;;;;;;;19.13;2.80;;;6.90;95.80;;;;;;5011898;28;20498;-86
2022/02/07 12:24:58;;;;;;;14.07;2.87;;;6.90;94.90;;;;;;5011903;28;20466;-87
2022/02/07 12:27:27;;;;;;;14.97;2.70;;;6.90;95.40;;;;;;5012112;28;20923;-86
2022/02/07 12:30:17;;;;;;;11.83;3.00;;;7.20;95.70;;;;;;5012154;28;20435;-86
2022/02/07 12:32:44;;;;;;;18.57;3.10;;;7.20;95.00;;;;;;5012606;28;20472;-87
2022/02/07 12:35:11;;;;;;;11.67;2.87;;;7.10;94.50;;;;;;5012556;28;20420;-85
2022/02/07 12:37:41;;;;;;;16.17;2.33;;;6.80;93.80;;;;;;5011949;28;20412;-87
2022/02/07 12:40:09;;;;;;;8.87;2.07;;;6.70;94.30;;;;;;5011477;28;20476;-85
2022/02/07 12:42:37;;;;;;;13.60;2.93;;;6.70;94.80;;;;;;5011008;28;20412;-85
2022/02/07 12:45:04;;;;;;;14.83;3.23;;;6.80;95.20;;;;;;5012485;28;20986;-86
2022/02/07 12:47:34;;;;;;;8.43;2.27;;;7.00;94.60;;;;;;5013660;28;20408;-85
2022/02/07 12:50:08;;;;;;;13.07;2.23;;;7.10;94.00;;;;;;5011841;28;20440;-86
2022/02/07 12:52:35;;;;;;;21.83;3.60;;;7.20;94.60;;;;;;5011727;28;20412;-85
2022/02/07 12:55:01;;;;;;;7.80;2.10;;;7.50;94.20;;;;;;5012253;28;20424;-85
2022/02/07 12:57:27;;;;;;;25.17;2.90;;;7.50;93.10;;;;;;5012349;28;20420;-85
2022/02/07 12:59:54;;;;;;;5.30;2.13;;;7.60;93.50;;;;;;5012198;28;20436;-85
2022/02/07 13:02:27;;;;;;;13.23;2.30;;;7.90;92.80;;;;;;5011374;28;20432;-84
2022/02/07 13:04:53;;;;;;;3.60;2.10;;;7.80;92.40;;;;;;5012126;28;20506;-84
2022/02/07 13:07:21;;;;;;;16.37;2.57;;;7.80;91.10;;;;;;5011766;28;20444;-86
2022/02/07 13:09:53;;;;;;;12.63;2.73;;;7.80;91.80;;;;;;5013261;28;20428;-86
2022/02/07 13:12:35;;;;;;;12.07;2.37;;;7.70;91.30;;;;;;5012268;28;20416;-86
2022/02/07 13:15:01;;;;;;;17.53;4.10;;;7.60;91.90;;;;;;5011789;28;20420;-85
2022/02/07 13:17:28;;;;;;;15.90;2.53;;;7.60;93.20;;;;;;5013287;28;20444;-86
2022/02/07 13:19:54;;;;;;;6.13;2.67;;;7.80;93.20;;;;;;5008476;28;20444;-86
2022/02/07 13:22:22;;;;;;;28.73;3.03;;;7.90;93.40;;;;;;5010671;28;20446;-86
2022/02/07 13:24:54;;;;;;;13.90;3.30;;;7.70;93.70;;;;;;5012688;28;20456;-86
2022/02/07 13:27:23;;;;;;;11.97;2.97;;;7.50;94.10;;;;;;5018296;28;20412;-86
2022/02/07 13:29:53;;;;;;;22.60;3.53;;;7.30;94.30;;;;;;5017959;28;20489;-86
2022/02/07 13:32:30;;;;;;;16.07;2.57;;;7.30;94.50;;;;;;5018112;28;20466;-86
2022/02/07 13:35:08;;;;;;;8.87;2.40;;;7.20;94.10;;;;;;5018175;28;20454;-86
2022/02/07 13:37:36;;;;;;;8.60;2.10;;;6.90;94.40;;;;;;5019481;28;20454;-86
2022/02/07 13:40:12;;;;;;;11.33;3.53;;;6.90;94.80;;;;;;5017688;28;20476;-86
2022/02/07 13:42:40;;;;;;;15.73;2.67;;;6.80;95.40;;;;;;5018601;28;20412;-86
2022/02/07 13:45:13;;;;;;;8.70;1.63;;;6.90;95.00;;;;;;5017577;28;20478;-85
2022/02/07 13:47:45;;;;;;;8.93;2.17;;;7.40;93.00;;;;;;5019956;28;20420;-85
2022/02/07 13:50:16;;;;;;;5.83;1.80;;;7.80;92.50;;;;;;5021745;28;20439;-86
2022/02/07 13:52:45;;;;;;;13.60;1.50;;;7.90;91.90;;;;;;5018190;28;20931;-86
2022/02/07 13:55:15;;;;;;;6.87;2.07;;;7.90;91.10;;;;;;5023874;28;20798;-86
2022/02/07 13:57:55;;;;;;;7.00;1.77;;;7.90;90.70;;;;;;5019189;28;20416;-86
2022/02/07 14:00:23;;;;;;;3.63;1.60;;;8.10;90.90;;;;;;5018103;28;21028;-86
2022/02/07 14:03:09;;;;;;;7.80;1.90;;;8.10;90.80;;;;;;5018956;28;20901;-86
2022/02/07 14:05:44;;;;;;;10.60;1.50;;;8.00;91.60;;;;;;5017895;28;20455;-86
2022/02/07 14:08:12;;;;;;;10.83;2.37;;;8.10;90.90;;;;;;5014061;28;20898;-86
2022/02/07 14:10:38;;;;;;;7.27;2.33;;;8.00;90.80;;;;;;5017147;28;20553;-86
2022/02/07 14:13:17;;;;;;;7.10;1.80;;;8.00;91.50;;;;;;5018726;28;20412;-86
2022/02/07 14:15:44;;;;;;;20.03;1.80;;;7.90;91.30;;;;;;5019117;28;20411;-87
2022/02/07 14:18:12;;;;;;;4.33;1.30;;;7.80;91.90;;;;;;5017813;28;20796;-86
2022/02/07 14:20:38;;;;;;;10.40;1.80;;;7.80;91.30;;;;;;5017293;28;20810;-86
2022/02/07 14:23:10;;;;;;;5.37;1.73;;;7.60;91.90;;;;;;5017902;28;20466;-87
2022/02/07 14:25:41;;;;;;;14.63;2.03;;;7.60;92.00;;;;;;5017752;28;20555;-86
2022/02/07 14:28:07;;;;;;;7.93;2.30;;;7.60;92.00;;;;;;5018817;28;20404;-87
2022/02/07 14:30:33;;;;;;;7.93;2.53;;;7.40;91.40;;;;;;5018948;28;20444;-87
2022/02/07 14:33:00;;;;;;;18.17;2.10;;;7.20;91.70;;;;;;5018616;28;20408;-87
2022/02/07 14:35:27;;;;;;;15.07;2.10;;;7.00;91.90;;;;;;5016755;28;20538;-87
2022/02/07 14:37:53;;;;;;;9.10;2.07;;;6.80;93.70;;;;;;5014264;28;20520;-87
2022/02/07 14:40:19;;;;;;;3.60;1.90;;;6.50;97.20;;;;;;5012018;28;20554;-87
2022/02/07 14:42:45;;;;;;;6.80;1.67;;;6.00;97.30;;;;;;5016233;28;20460;-87
2022/02/07 14:47:50;;;;;;;5.57;1.40;;;5.20;97.30;;;;;;5017523;28;20419;-84
2022/02/07 14:50:19;;;;;;;3.57;1.90;;;5.10;97.30;;;;;;5012795;28;20585;-85
2022/02/07 14:52:45;;;;;;;3.73;1.20;;;5.00;97.30;;;;;;5014063;28;20432;-85
2022/02/07 14:55:10;;;;;;;3.83;1.37;;;4.90;97.30;;;;;;5013894;28;20550;-85
2022/02/07 14:57:36;;;;;;;2.87;1.20;;;4.90;97.30;;;;;;5013833;28;20177;-85
2022/02/07 15:00:07;;;;;;;4.67;1.40;;;4.90;97.30;;;;;;5013659;28;20201;-86
2022/02/07 15:02:33;;;;;;;3.33;1.83;;;4.90;97.30;;;;;;5015553;28;20166;-85
2022/02/07 15:05:00;;;;;;;2.00;1.03;;;5.40;97.30;;;;;;5013524;28;20510;-84
2022/02/07 15:07:27;;;;;;;3.03;1.10;;;5.90;97.30;;;;;;5013693;28;20511;-85
2022/02/07 15:09:53;;;;;;;4.97;1.70;;;6.10;97.30;;;;;;5014323;28;20517;-85
2022/02/07 15:12:19;;;;;;;1.83;1.30;;;6.30;97.30;;;;;;5013826;28;20503;-86
2022/02/07 15:14:49;;;;;;;2.50;1.67;;;6.30;97.30;;;;;;5013121;28;20498;-85
2022/02/07 15:17:16;;;;;;;1.40;1.30;;;6.10;97.30;;;;;;5013526;28;20204;-86
2022/02/07 15:19:42;;;;;;;3.27;1.07;;;5.80;97.30;;;;;;5013100;28;21150;-85
2022/02/07 15:22:08;;;;;;;13.20;1.40;;;5.80;97.30;;;;;;5013392;28;20420;-85
2022/02/07 15:24:34;;;;;;;7.83;2.40;;;6.00;97.30;;;;;;5013307;28;20452;-86
2022/02/07 15:27:02;;;;;;;9.57;1.53;;;6.20;97.30;;;;;;5015193;28;20518;-86